Time;durP1;ratioP1;P1;durP2;ratioP2;P2;SDS_P1;SDS_P2;PMS_P1;PMS_P2;Temp;Humidity;BMP_temperature;BMP_pressure;BME280_temperature;BME280_humidity;BME280_pressure;Samples;Min_cycle;Max_cycle;Signal;HPM_P1;HPM_P2
2021/05/29 00:01:01;;;;;;;;;;;15.40;89.90;;;;;;2061545;28;1449;-60
2021/05/29 00:02:20;;;;;;;;;;;15.30;89.90;;;;;;2074693;28;1984;-61
2021/05/29 00:03:39;;;;;;;;;;;15.30;89.90;;;;;;2072796;28;769;-61
2021/05/29 00:04:59;;;;;;;;;;;15.30;89.90;;;;;;2064352;28;766;-61
2021/05/29 00:06:18;;;;;;;;;;;15.30;90.00;;;;;;2069334;28;745;-62
2021/05/29 00:07:37;;;;;;;;;;;15.40;90.00;;;;;;2072580;28;1979;-62
2021/05/29 00:08:57;;;;;;;;;;;15.30;90.00;;;;;;2072835;28;700;-63
2021/05/29 00:10:16;;;;;;;;;;;15.30;90.00;;;;;;2070591;28;1393;-62
2021/05/29 00:11:35;;;;;;;;;;;15.30;90.00;;;;;;2069143;28;1346;-63
2021/05/29 00:12:54;;;;;;;;;;;15.30;90.00;;;;;;2069478;28;759;-61
2021/05/29 00:14:13;;;;;;;;;;;15.30;90.10;;;;;;2076555;28;707;-61
2021/05/29 00:15:32;;;;;;;;;;;15.30;90.40;;;;;;2080794;28;741;-62
2021/05/29 00:16:51;;;;;;;;;;;15.30;90.10;;;;;;2056221;28;710;-61
2021/05/29 00:18:11;;;;;;;;;;;15.30;90.10;;;;;;2071073;28;1379;-62
2021/05/29 00:19:30;;;;;;;;;;;15.30;90.20;;;;;;2072288;28;790;-62
2021/05/29 00:20:49;;;;;;;;;;;15.30;90.20;;;;;;2061167;28;1448;-61
2021/05/29 00:22:09;;;;;;;;;;;15.30;90.20;;;;;;2069305;28;719;-61
2021/05/29 00:23:28;;;;;;;;;;;15.30;90.20;;;;;;2072942;28;728;-63
2021/05/29 00:24:47;;;;;;;;;;;15.30;90.20;;;;;;2072138;28;728;-62
2021/05/29 00:26:07;;;;;;;;;;;15.30;90.20;;;;;;2074006;28;990;-61
2021/05/29 00:27:26;;;;;;;;;;;15.30;90.20;;;;;;2072185;28;1934;-62
2021/05/29 00:28:45;;;;;;;;;;;15.30;90.30;;;;;;2075873;28;1565;-62
2021/05/29 00:30:05;;;;;;;;;;;15.30;90.30;;;;;;2084988;28;1325;-60
2021/05/29 00:31:24;;;;;;;;;;;15.30;90.30;;;;;;2080419;28;1334;-62
2021/05/29 00:32:44;;;;;;;;;;;15.30;90.70;;;;;;2072534;28;792;-60
2021/05/29 00:34:03;;;;;;;;;;;15.30;90.40;;;;;;2077337;28;784;-63
2021/05/29 00:35:22;;;;;;;;;;;15.30;90.30;;;;;;2082057;28;1307;-62
2021/05/29 00:36:41;;;;;;;;;;;15.30;90.30;;;;;;2067212;28;938;-60
2021/05/29 00:38:01;;;;;;;;;;;15.30;90.30;;;;;;2069545;28;712;-61
2021/05/29 00:39:20;;;;;;;;;;;15.30;90.30;;;;;;2064491;28;1049;-61
2021/05/29 00:40:39;;;;;;;;;;;15.30;90.30;;;;;;2060246;28;1524;-61
2021/05/29 00:41:59;;;;;;;;;;;15.30;90.30;;;;;;2065984;28;788;-63
2021/05/29 00:43:18;;;;;;;;;;;15.30;90.30;;;;;;2070248;28;1700;-62
2021/05/29 00:44:47;;;;;;;;;;;15.30;90.40;;;;;;2072327;28;1086;-60
2021/05/29 00:46:06;;;;;;;;;;;15.20;90.40;;;;;;2069778;28;1249;-60
2021/05/29 00:47:26;;;;;;;;;;;15.30;90.40;;;;;;2077894;28;1977;-60
2021/05/29 00:48:45;;;;;;;;;;;15.30;90.50;;;;;;2057529;28;899;-61
2021/05/29 00:50:08;;;;;;;;;;;15.20;90.40;;;;;;2065265;28;1949;-62
2021/05/29 00:51:28;;;;;;;;;;;15.20;90.50;;;;;;2084957;28;1537;-62
2021/05/29 00:52:47;;;;;;;;;;;15.30;90.80;;;;;;2072425;28;743;-61
2021/05/29 00:54:06;;;;;;;;;;;15.20;90.80;;;;;;2071652;28;758;-61
2021/05/29 00:55:25;;;;;;;;;;;15.20;90.50;;;;;;2072915;28;779;-61
2021/05/29 00:56:45;;;;;;;;;;;15.20;90.50;;;;;;2080614;28;1084;-62
2021/05/29 00:58:04;;;;;;;;;;;15.20;90.60;;;;;;2072425;28;1044;-61
2021/05/29 00:59:23;;;;;;;;;;;15.20;90.60;;;;;;2074139;28;1064;-61
2021/05/29 01:00:42;;;;;;;;;;;15.20;90.60;;;;;;2060990;28;1334;-61
2021/05/29 01:02:02;;;;;;;;;;;15.20;90.60;;;;;;2064470;28;734;-62
2021/05/29 01:03:21;;;;;;;;;;;15.20;90.60;;;;;;2061173;28;948;-61
2021/05/29 01:04:41;;;;;;;;;;;15.20;90.70;;;;;;2063519;28;759;-62
2021/05/29 01:06:00;;;;;;;;;;;15.20;90.70;;;;;;2061322;28;739;-61
2021/05/29 01:07:19;;;;;;;;;;;15.20;90.70;;;;;;2063717;28;1971;-61
2021/05/29 01:08:38;;;;;;;;;;;15.20;90.80;;;;;;2069486;28;802;-60
2021/05/29 01:09:58;;;;;;;;;;;15.20;91.10;;;;;;2078331;28;1801;-59
2021/05/29 01:11:17;;;;;;;;;;;15.20;90.80;;;;;;2071247;28;1349;-62
2021/05/29 01:12:36;;;;;;;;;;;15.20;91.10;;;;;;2069256;28;1017;-61
2021/05/29 01:13:59;;;;;;;;;;;15.20;90.80;;;;;;2072106;28;737;-61
2021/05/29 01:15:18;;;;;;;;;;;15.20;90.80;;;;;;2077814;28;714;-62
2021/05/29 01:17:57;;;;;;;;;;;15.20;90.80;;;;;;2077548;28;1988;-62
2021/05/29 01:19:16;;;;;;;;;;;15.20;90.90;;;;;;2080541;28;716;-60
2021/05/29 01:20:36;;;;;;;;;;;15.20;90.90;;;;;;2080848;28;740;-60
2021/05/29 01:21:55;;;;;;;;;;;15.20;90.90;;;;;;2072150;28;781;-62
2021/05/29 01:23:15;;;;;;;;;;;15.20;91.20;;;;;;2077568;28;752;-61
2021/05/29 01:24:34;;;;;;;;;;;15.20;90.80;;;;;;2071488;28;697;-62
2021/05/29 01:25:53;;;;;;;;;;;15.20;90.80;;;;;;2076629;28;870;-62
2021/05/29 01:27:12;;;;;;;;;;;15.20;90.80;;;;;;2068446;28;1898;-62
2021/05/29 01:28:32;;;;;;;;;;;15.20;90.90;;;;;;2067628;28;1740;-62
2021/05/29 01:29:52;;;;;;;;;;;15.20;90.80;;;;;;2079058;28;1482;-62
2021/05/29 01:31:13;;;;;;;;;;;15.20;90.90;;;;;;2082055;28;1803;-62
2021/05/29 01:32:34;;;;;;;;;;;15.20;90.90;;;;;;2076853;28;752;-63
2021/05/29 01:33:54;;;;;;;;;;;15.20;91.00;;;;;;2079157;28;743;-62
2021/05/29 01:35:13;;;;;;;;;;;15.10;91.00;;;;;;2082045;28;700;-62
2021/05/29 01:36:32;;;;;;;;;;;15.10;91.30;;;;;;2082290;28;724;-62
2021/05/29 01:37:52;;;;;;;;;;;15.10;91.00;;;;;;2073770;28;733;-62
2021/05/29 01:39:11;;;;;;;;;;;15.10;91.00;;;;;;2064909;28;1818;-62
2021/05/29 01:40:31;;;;;;;;;;;15.10;91.10;;;;;;2075254;28;1670;-62
2021/05/29 01:41:50;;;;;;;;;;;15.20;91.10;;;;;;2073507;28;803;-62
2021/05/29 01:43:10;;;;;;;;;;;15.10;91.10;;;;;;2066667;28;2093;-62
2021/05/29 01:44:29;;;;;;;;;;;15.10;91.10;;;;;;2073421;28;1198;-62
2021/05/29 01:45:48;;;;;;;;;;;15.10;91.10;;;;;;2079240;28;1307;-62
2021/05/29 01:47:07;;;;;;;;;;;15.10;91.10;;;;;;2074165;28;1898;-62
2021/05/29 01:48:33;;;;;;;;;;;15.10;91.20;;;;;;2087352;28;1545;-62
2021/05/29 01:49:52;;;;;;;;;;;15.10;91.10;;;;;;2072808;28;1291;-62
2021/05/29 01:51:12;;;;;;;;;;;15.10;91.20;;;;;;2074546;28;1552;-62
2021/05/29 01:52:44;;;;;;;;;;;15.10;91.20;;;;;;2078447;28;1743;-61
2021/05/29 01:54:03;;;;;;;;;;;15.10;91.30;;;;;;2072394;28;1617;-62
2021/05/29 01:55:23;;;;;;;;;;;15.10;91.30;;;;;;2076152;28;1051;-60
2021/05/29 01:56:42;;;;;;;;;;;15.10;91.30;;;;;;2064206;28;1032;-61
2021/05/29 01:58:02;;;;;;;;;;;15.10;91.30;;;;;;2075296;28;993;-61
2021/05/29 01:59:21;;;;;;;;;;;15.10;91.30;;;;;;2086922;28;1044;-62
2021/05/29 02:00:41;;;;;;;;;;;15.10;91.30;;;;;;2081620;28;1320;-62
2021/05/29 02:02:00;;;;;;;;;;;15.10;91.30;;;;;;2087114;28;746;-63
2021/05/29 02:03:19;;;;;;;;;;;15.10;91.30;;;;;;2085373;28;758;-61
2021/05/29 02:04:38;;;;;;;;;;;15.10;91.30;;;;;;2073864;28;767;-62
2021/05/29 02:05:57;;;;;;;;;;;15.10;91.70;;;;;;2078729;28;1512;-61
2021/05/29 02:07:17;;;;;;;;;;;15.10;91.40;;;;;;2072799;28;1906;-62
2021/05/29 02:08:36;;;;;;;;;;;15.10;91.70;;;;;;2073246;28;714;-62
2021/05/29 02:09:55;;;;;;;;;;;15.10;91.40;;;;;;2078624;28;741;-62
2021/05/29 02:11:14;;;;;;;;;;;15.10;91.40;;;;;;2073333;28;1362;-60
2021/05/29 02:12:43;;;;;;;;;;;15.10;91.40;;;;;;2078677;28;745;-62
2021/05/29 02:14:02;;;;;;;;;;;15.10;91.40;;;;;;2081074;28;709;-62
2021/05/29 02:15:32;;;;;;;;;;;15.10;91.40;;;;;;2073439;28;803;-62
2021/05/29 02:16:51;;;;;;;;;;;15.10;91.40;;;;;;2073546;28;719;-62
2021/05/29 02:18:10;;;;;;;;;;;15.10;91.40;;;;;;2078275;28;1637;-61
2021/05/29 02:19:30;;;;;;;;;;;15.10;91.70;;;;;;2073463;28;721;-61
2021/05/29 02:20:53;;;;;;;;;;;15.00;91.70;;;;;;2078734;28;1350;-61
2021/05/29 02:22:12;;;;;;;;;;;15.00;91.40;;;;;;2073265;28;1982;-61
2021/05/29 02:23:32;;;;;;;;;;;15.00;91.40;;;;;;2078091;28;719;-62
2021/05/29 02:24:51;;;;;;;;;;;15.00;91.50;;;;;;2081337;28;726;-61
2021/05/29 02:26:12;;;;;;;;;;;15.00;91.50;;;;;;2081341;28;982;-62
2021/05/29 02:27:31;;;;;;;;;;;15.00;91.50;;;;;;2072755;28;1968;-62
2021/05/29 02:28:54;;;;;;;;;;;15.10;91.60;;;;;;2068848;28;890;-61
2021/05/29 02:30:13;;;;;;;;;;;15.00;91.90;;;;;;2066668;28;1709;-61
2021/05/29 02:31:32;;;;;;;;;;;15.00;91.60;;;;;;2070377;28;1449;-61
2021/05/29 02:32:51;;;;;;;;;;;15.00;91.60;;;;;;2073950;28;721;-61
2021/05/29 02:34:11;;;;;;;;;;;15.00;91.60;;;;;;2064484;28;743;-60
2021/05/29 02:35:30;;;;;;;;;;;15.00;91.60;;;;;;2064032;28;1689;-62
2021/05/29 02:36:50;;;;;;;;;;;15.00;91.60;;;;;;2065068;28;750;-62
2021/05/29 02:38:09;;;;;;;;;;;15.00;91.70;;;;;;2065229;28;742;-62
2021/05/29 02:39:28;;;;;;;;;;;15.00;91.60;;;;;;2065340;28;723;-61
2021/05/29 02:40:47;;;;;;;;;;;15.00;91.70;;;;;;2069907;28;1287;-61
2021/05/29 02:42:07;;;;;;;;;;;15.00;91.70;;;;;;2076072;28;1509;-62
2021/05/29 02:43:26;;;;;;;;;;;15.00;91.70;;;;;;2074552;28;1331;-61
2021/05/29 02:44:45;;;;;;;;;;;15.00;92.00;;;;;;2070878;28;1125;-61
2021/05/29 02:46:05;;;;;;;;;;;15.00;92.00;;;;;;2077653;28;1425;-62
2021/05/29 02:47:24;;;;;;;;;;;15.00;91.70;;;;;;2082857;28;1977;-62
2021/05/29 02:48:44;;;;;;;;;;;15.00;91.80;;;;;;2081705;28;1335;-61
2021/05/29 02:50:03;;;;;;;;;;;15.00;91.80;;;;;;2083833;28;1611;-63
2021/05/29 02:51:23;;;;;;;;;;;15.00;91.70;;;;;;2079266;28;1401;-63
2021/05/29 02:52:42;;;;;;;;;;;15.00;91.80;;;;;;2078235;28;1002;-61
2021/05/29 02:54:01;;;;;;;;;;;15.00;91.90;;;;;;2068033;28;1124;-62
2021/05/29 02:55:22;;;;;;;;;;;15.00;91.90;;;;;;2062384;28;1371;-62
2021/05/29 02:56:41;;;;;;;;;;;15.00;91.80;;;;;;2073953;28;1021;-62
2021/05/29 02:58:01;;;;;;;;;;;15.00;91.90;;;;;;2085748;28;980;-61
2021/05/29 02:59:19;;;;;;;;;;;14.90;91.80;;;;;;2076671;28;1119;-61
2021/05/29 03:00:42;;;;;;;;;;;14.90;92.20;;;;;;2070026;28;1486;-61
2021/05/29 03:02:03;;;;;;;;;;;14.90;92.10;;;;;;2065092;28;720;-61
2021/05/29 03:03:22;;;;;;;;;;;14.90;91.80;;;;;;2065449;28;1604;-60
2021/05/29 03:04:41;;;;;;;;;;;14.90;91.80;;;;;;2078004;28;728;-61
2021/05/29 03:06:00;;;;;;;;;;;14.90;91.70;;;;;;2081304;28;757;-60
2021/05/29 03:07:19;;;;;;;;;;;15.00;91.80;;;;;;2081535;28;1906;-60
2021/05/29 03:08:38;;;;;;;;;;;14.90;91.70;;;;;;2081058;28;1514;-60
2021/05/29 03:09:58;;;;;;;;;;;14.90;91.80;;;;;;2073075;28;714;-59
2021/05/29 03:11:17;;;;;;;;;;;14.90;91.80;;;;;;2078468;28;1345;-60
2021/05/29 03:12:37;;;;;;;;;;;14.90;91.90;;;;;;2072962;28;742;-60
2021/05/29 03:13:56;;;;;;;;;;;15.00;92.00;;;;;;2069581;28;737;-60
2021/05/29 03:15:18;;;;;;;;;;;14.90;91.90;;;;;;2069795;28;1708;-60
2021/05/29 03:16:37;;;;;;;;;;;14.90;92.00;;;;;;2072959;28;777;-62
2021/05/29 03:17:56;;;;;;;;;;;14.90;92.20;;;;;;2070136;28;734;-60
2021/05/29 03:19:15;;;;;;;;;;;15.00;92.30;;;;;;2073237;28;737;-62
2021/05/29 03:20:35;;;;;;;;;;;14.90;92.40;;;;;;2081311;28;794;-61
2021/05/29 03:21:55;;;;;;;;;;;14.90;92.50;;;;;;2080946;28;1771;-61
2021/05/29 03:23:14;;;;;;;;;;;14.90;92.60;;;;;;2073063;28;1661;-61
2021/05/29 03:24:33;;;;;;;;;;;14.90;92.60;;;;;;2077655;28;780;-60
2021/05/29 03:25:52;;;;;;;;;;;14.90;92.70;;;;;;2081605;28;731;-61
2021/05/29 03:27:16;;;;;;;;;;;14.90;92.70;;;;;;2082958;28;1964;-61
2021/05/29 03:28:35;;;;;;;;;;;14.90;93.00;;;;;;2089461;28;969;-62
2021/05/29 03:29:55;;;;;;;;;;;14.90;92.70;;;;;;2073085;28;1545;-60
2021/05/29 03:31:14;;;;;;;;;;;14.90;92.70;;;;;;2077587;28;1448;-61
2021/05/29 03:32:33;;;;;;;;;;;14.90;92.80;;;;;;2081445;28;734;-61
2021/05/29 03:33:52;;;;;;;;;;;14.90;92.70;;;;;;2081825;28;793;-61
2021/05/29 03:35:12;;;;;;;;;;;14.90;92.60;;;;;;2081229;28;803;-61
2021/05/29 03:36:31;;;;;;;;;;;14.90;92.90;;;;;;2056641;28;737;-62
2021/05/29 03:37:50;;;;;;;;;;;14.90;92.70;;;;;;2066502;28;738;-62
2021/05/29 03:39:09;;;;;;;;;;;14.90;92.60;;;;;;2064580;28;720;-61
2021/05/29 03:40:28;;;;;;;;;;;14.90;93.20;;;;;;2070224;28;763;-60
2021/05/29 03:41:47;;;;;;;;;;;14.90;93.10;;;;;;2074754;28;1703;-61
2021/05/29 03:43:06;;;;;;;;;;;14.90;92.70;;;;;;2072646;28;2029;-61
2021/05/29 03:44:26;;;;;;;;;;;14.90;92.70;;;;;;2073284;28;1423;-61
2021/05/29 03:45:45;;;;;;;;;;;14.90;92.70;;;;;;2077727;28;1449;-60
2021/05/29 03:47:04;;;;;;;;;;;14.90;92.80;;;;;;2081393;28;1419;-61
2021/05/29 03:48:24;;;;;;;;;;;14.90;92.80;;;;;;2080865;28;1524;-61
2021/05/29 03:49:42;;;;;;;;;;;14.90;92.70;;;;;;2068208;28;1622;-61
2021/05/29 03:51:02;;;;;;;;;;;14.90;92.70;;;;;;2068026;28;1488;-61
2021/05/29 03:52:21;;;;;;;;;;;14.90;92.70;;;;;;2078228;28;1080;-61
2021/05/29 03:53:40;;;;;;;;;;;14.90;92.70;;;;;;2080566;28;1405;-62
2021/05/29 03:55:00;;;;;;;;;;;14.90;92.70;;;;;;2081074;28;719;-61
2021/05/29 03:56:19;;;;;;;;;;;14.90;92.80;;;;;;2072868;28;944;-61
2021/05/29 03:57:38;;;;;;;;;;;14.90;92.80;;;;;;2061362;28;981;-61
2021/05/29 03:58:57;;;;;;;;;;;14.90;93.20;;;;;;2068625;28;1662;-60
2021/05/29 04:00:20;;;;;;;;;;;14.90;93.20;;;;;;2078079;28;806;-61
2021/05/29 04:01:39;;;;;;;;;;;14.90;92.90;;;;;;2081464;28;1361;-61
2021/05/29 04:02:59;;;;;;;;;;;14.90;93.00;;;;;;2072749;28;1712;-61
2021/05/29 04:04:18;;;;;;;;;;;14.90;92.90;;;;;;2076839;28;1027;-61
2021/05/29 04:05:37;;;;;;;;;;;14.90;92.90;;;;;;2064609;28;827;-61
2021/05/29 04:06:58;;;;;;;;;;;14.90;93.00;;;;;;2074559;28;749;-61
2021/05/29 04:08:18;;;;;;;;;;;14.90;93.00;;;;;;2072622;28;959;-61
2021/05/29 04:09:37;;;;;;;;;;;14.90;93.00;;;;;;2077940;28;765;-61
2021/05/29 04:10:56;;;;;;;;;;;14.90;92.90;;;;;;2072699;28;1380;-61
2021/05/29 04:12:15;;;;;;;;;;;14.90;93.00;;;;;;2056093;28;798;-61
2021/05/29 04:13:34;;;;;;;;;;;14.90;93.10;;;;;;2066607;28;1695;-62
2021/05/29 04:14:53;;;;;;;;;;;14.80;92.90;;;;;;2072684;28;723;-61
2021/05/29 04:16:13;;;;;;;;;;;14.80;92.90;;;;;;2072579;28;832;-61
2021/05/29 04:17:32;;;;;;;;;;;14.90;93.00;;;;;;2064372;28;1737;-61
2021/05/29 04:18:51;;;;;;;;;;;14.80;92.90;;;;;;2069366;28;803;-60
2021/05/29 04:20:11;;;;;;;;;;;14.80;92.90;;;;;;2069410;28;736;-62
2021/05/29 04:21:31;;;;;;;;;;;14.80;92.90;;;;;;2077769;28;1349;-62
2021/05/29 04:22:50;;;;;;;;;;;14.80;93.00;;;;;;2072374;28;780;-62
2021/05/29 04:24:09;;;;;;;;;;;14.80;93.00;;;;;;2068790;28;793;-62
2021/05/29 04:25:29;;;;;;;;;;;14.80;92.90;;;;;;2077991;28;698;-61
2021/05/29 04:26:48;;;;;;;;;;;14.80;93.00;;;;;;2075219;28;1682;-62
2021/05/29 04:28:07;;;;;;;;;;;14.80;93.30;;;;;;2077411;28;1969;-62
2021/05/29 04:29:26;;;;;;;;;;;14.80;93.30;;;;;;2081207;28;969;-62
2021/05/29 04:30:45;;;;;;;;;;;14.80;93.30;;;;;;2074844;28;1518;-61
2021/05/29 04:32:05;;;;;;;;;;;14.80;93.00;;;;;;2081394;28;1519;-62
2021/05/29 04:33:24;;;;;;;;;;;14.80;93.10;;;;;;2071531;28;1518;-62
2021/05/29 04:34:43;;;;;;;;;;;14.80;93.00;;;;;;2068815;28;756;-61
2021/05/29 04:36:03;;;;;;;;;;;14.80;93.10;;;;;;2077452;28;794;-61
2021/05/29 04:37:22;;;;;;;;;;;14.80;93.10;;;;;;2080547;28;1035;-62
2021/05/29 04:38:41;;;;;;;;;;;14.80;93.00;;;;;;2080991;28;739;-62
2021/05/29 04:40:01;;;;;;;;;;;14.80;92.90;;;;;;2080864;28;729;-62
2021/05/29 04:41:23;;;;;;;;;;;14.80;92.90;;;;;;2080569;28;2024;-62
2021/05/29 04:42:42;;;;;;;;;;;14.80;92.90;;;;;;2081014;28;1327;-62
2021/05/29 04:44:01;;;;;;;;;;;14.80;93.30;;;;;;2080126;28;1406;-62
2021/05/29 04:45:21;;;;;;;;;;;14.80;93.00;;;;;;2078085;28;1312;-61
2021/05/29 04:46:40;;;;;;;;;;;14.80;93.00;;;;;;2070050;28;1387;-62
2021/05/29 04:48:00;;;;;;;;;;;14.80;93.00;;;;;;2082506;28;1902;-62
2021/05/29 04:49:20;;;;;;;;;;;14.80;93.10;;;;;;2082840;28;1029;-62
2021/05/29 04:52:16;;;;;;;;;;;14.80;93.10;;;;;;2075193;28;1559;-61
2021/05/29 04:53:36;;;;;;;;;;;14.80;93.10;;;;;;2086118;28;1350;-62
2021/05/29 04:54:55;;;;;;;;;;;14.80;93.20;;;;;;2079982;28;1378;-61
2021/05/29 04:56:14;;;;;;;;;;;14.80;93.10;;;;;;2083797;28;1700;-61
2021/05/29 04:57:33;;;;;;;;;;;14.80;93.10;;;;;;2078160;28;1125;-62
2021/05/29 04:58:53;;;;;;;;;;;14.80;93.40;;;;;;2076395;28;1454;-61
2021/05/29 05:00:13;;;;;;;;;;;14.80;93.10;;;;;;2074838;28;1382;-62
2021/05/29 05:01:33;;;;;;;;;;;14.80;93.10;;;;;;2070458;28;1414;-61
2021/05/29 05:02:52;;;;;;;;;;;14.80;93.20;;;;;;2073603;28;1123;-60
2021/05/29 05:04:11;;;;;;;;;;;14.80;93.10;;;;;;2078020;28;1140;-61
2021/05/29 05:05:30;;;;;;;;;;;14.80;93.10;;;;;;2071120;28;1112;-59
2021/05/29 05:06:50;;;;;;;;;;;14.80;93.10;;;;;;2076203;28;1257;-60
2021/05/29 05:08:09;;;;;;;;;;;14.80;93.10;;;;;;2079766;28;1988;-60
2021/05/29 05:09:28;;;;;;;;;;;14.80;93.10;;;;;;2064042;28;1371;-59
2021/05/29 05:10:47;;;;;;;;;;;14.80;93.10;;;;;;2072977;28;1514;-60
2021/05/29 05:12:06;;;;;;;;;;;14.80;93.20;;;;;;2069736;28;1354;-60
2021/05/29 05:13:26;;;;;;;;;;;14.80;93.30;;;;;;2064745;28;1079;-60
2021/05/29 05:14:45;;;;;;;;;;;14.80;93.30;;;;;;2073392;28;865;-60
2021/05/29 05:16:04;;;;;;;;;;;14.80;93.90;;;;;;2077885;28;1052;-61
2021/05/29 05:17:23;;;;;;;;;;;14.80;93.60;;;;;;2080551;28;938;-61
2021/05/29 05:18:43;;;;;;;;;;;14.80;94.20;;;;;;2077538;28;706;-61
2021/05/29 05:20:03;;;;;;;;;;;14.80;94.30;;;;;;2073942;28;1697;-63
2021/05/29 05:21:22;;;;;;;;;;;14.90;94.20;;;;;;2073862;28;1409;-63
2021/05/29 05:22:41;;;;;;;;;;;14.90;94.60;;;;;;2086534;28;1285;-60
2021/05/29 05:24:00;;;;;;;;;;;14.90;94.80;;;;;;2083069;28;1044;-61
2021/05/29 05:25:19;;;;;;;;;;;14.90;94.90;;;;;;2073997;28;1595;-62
2021/05/29 05:26:39;;;;;;;;;;;14.90;95.60;;;;;;2077880;28;1391;-60
2021/05/29 05:27:58;;;;;;;;;;;14.90;95.30;;;;;;2081369;28;1980;-61
2021/05/29 05:29:17;;;;;;;;;;;14.90;95.20;;;;;;2087924;28;930;-61
2021/05/29 05:30:37;;;;;;;;;;;14.90;95.60;;;;;;2082109;28;759;-61
2021/05/29 05:31:56;;;;;;;;;;;14.90;95.20;;;;;;2087184;28;763;-62
2021/05/29 05:33:16;;;;;;;;;;;15.00;94.90;;;;;;2090788;28;755;-61
2021/05/29 05:34:35;;;;;;;;;;;15.00;94.80;;;;;;2081014;28;1333;-61
2021/05/29 05:35:55;;;;;;;;;;;15.00;94.70;;;;;;2073538;28;985;-61
2021/05/29 05:37:14;;;;;;;;;;;15.00;94.50;;;;;;2073924;28;785;-61
2021/05/29 05:38:34;;;;;;;;;;;15.00;94.40;;;;;;2079242;28;727;-61
2021/05/29 05:39:53;;;;;;;;;;;15.00;94.40;;;;;;2073827;28;798;-62
2021/05/29 05:41:13;;;;;;;;;;;15.00;94.30;;;;;;2065710;28;1364;-61
2021/05/29 05:42:32;;;;;;;;;;;15.00;94.20;;;;;;2062498;28;770;-61
2021/05/29 05:43:51;;;;;;;;;;;15.00;94.20;;;;;;2070435;28;724;-62
2021/05/29 05:45:10;;;;;;;;;;;15.00;94.10;;;;;;2073877;28;759;-61
2021/05/29 05:46:30;;;;;;;;;;;15.10;94.10;;;;;;2081231;28;1930;-61
2021/05/29 05:47:49;;;;;;;;;;;15.00;94.30;;;;;;2077023;28;1914;-61
2021/05/29 05:49:08;;;;;;;;;;;15.00;94.00;;;;;;2082164;28;1099;-61
2021/05/29 05:50:28;;;;;;;;;;;15.00;94.00;;;;;;2081543;28;816;-62
2021/05/29 05:51:47;;;;;;;;;;;15.10;94.00;;;;;;2073702;28;729;-61
2021/05/29 05:53:06;;;;;;;;;;;15.10;93.90;;;;;;2070207;28;1794;-61
2021/05/29 05:54:26;;;;;;;;;;;15.10;93.90;;;;;;2070193;28;734;-61
2021/05/29 05:55:45;;;;;;;;;;;15.10;93.90;;;;;;2073716;28;743;-61
2021/05/29 05:57:04;;;;;;;;;;;15.10;93.90;;;;;;2073658;28;726;-61
2021/05/29 05:58:23;;;;;;;;;;;15.10;93.80;;;;;;2073992;28;755;-62
2021/05/29 05:59:42;;;;;;;;;;;15.10;93.80;;;;;;2073860;28;730;-61
2021/05/29 06:01:02;;;;;;;;;;;15.10;93.80;;;;;;2074102;28;1370;-61
2021/05/29 06:02:21;;;;;;;;;;;15.10;93.80;;;;;;2073927;28;834;-61
2021/05/29 06:03:40;;;;;;;;;;;15.10;93.70;;;;;;2059786;28;897;-62
2021/05/29 06:04:59;;;;;;;;;;;15.10;93.90;;;;;;2080694;28;1012;-62
2021/05/29 06:06:18;;;;;;;;;;;15.10;93.90;;;;;;2088046;28;1023;-61
2021/05/29 06:07:38;;;;;;;;;;;15.10;93.70;;;;;;2074182;28;1902;-62
2021/05/29 06:08:57;;;;;;;;;;;15.10;93.60;;;;;;2073617;28;1055;-61
2021/05/29 06:10:18;;;;;;;;;;;15.20;93.60;;;;;;2073648;28;728;-61
2021/05/29 06:11:37;;;;;;;;;;;15.10;93.40;;;;;;2073472;28;1342;-62
2021/05/29 06:12:56;;;;;;;;;;;15.10;93.40;;;;;;2073133;28;1626;-61
2021/05/29 06:19:24;;;;;;;;;;;15.20;94.10;;;;;;2073657;28;1035;-61
2021/05/29 06:20:47;;;;;;;;;;;15.20;94.80;;;;;;2081321;28;1553;-63
2021/05/29 06:22:06;;;;;;;;;;;15.30;97.50;;;;;;2065653;28;1520;-62
2021/05/29 06:23:25;;;;;;;;;;;15.30;96.20;;;;;;2077407;28;1572;-63
2021/05/29 06:24:45;;;;;;;;;;;15.30;96.10;;;;;;2076499;28;1076;-63
2021/05/29 06:26:04;;;;;;;;;;;15.30;98.10;;;;;;2061587;28;1472;-61
2021/05/29 06:27:23;;;;;;;;;;;15.40;97.90;;;;;;2057739;28;1971;-60
2021/05/29 06:28:42;;;;;;;;;;;15.40;96.80;;;;;;2074805;28;1518;-60
2021/05/29 06:30:03;;;;;;;;;;;15.40;95.90;;;;;;2080929;28;737;-61
2021/05/29 06:31:23;;;;;;;;;;;15.40;96.20;;;;;;2085895;28;1422;-62
2021/05/29 06:32:42;;;;;;;;;;;15.40;97.20;;;;;;2080944;28;765;-62
2021/05/29 06:34:01;;;;;;;;;;;15.40;97.60;;;;;;2063101;28;1114;-62
2021/05/29 06:35:20;;;;;;;;;;;15.40;97.70;;;;;;2080655;28;981;-62
2021/05/29 06:36:40;;;;;;;;;;;15.40;97.50;;;;;;2072523;28;756;-62
2021/05/29 06:38:00;;;;;;;;;;;15.40;97.00;;;;;;2064150;28;822;-62
2021/05/29 06:39:19;;;;;;;;;;;15.40;96.40;;;;;;2069544;28;777;-62
2021/05/29 06:40:38;;;;;;;;;;;15.40;96.40;;;;;;2064795;28;738;-62
2021/05/29 06:41:57;;;;;;;;;;;15.40;96.60;;;;;;2069746;28;797;-62
2021/05/29 06:43:17;;;;;;;;;;;15.40;96.40;;;;;;2073278;28;744;-62
2021/05/29 06:44:36;;;;;;;;;;;15.40;96.60;;;;;;2080537;28;1457;-62
2021/05/29 06:45:55;;;;;;;;;;;15.40;96.30;;;;;;2089476;28;764;-62
2021/05/29 06:47:14;;;;;;;;;;;15.40;96.30;;;;;;2089681;28;713;-62
2021/05/29 06:48:33;;;;;;;;;;;15.40;96.70;;;;;;2081926;28;1706;-62
2021/05/29 06:49:53;;;;;;;;;;;15.40;96.90;;;;;;2065087;28;744;-62
2021/05/29 06:51:17;;;;;;;;;;;15.40;97.10;;;;;;2061934;28;1378;-61
2021/05/29 06:52:40;;;;;;;;;;;15.40;96.90;;;;;;2070956;28;738;-61
2021/05/29 06:54:04;;;;;;;;;;;15.40;96.70;;;;;;2059246;28;815;-62
2021/05/29 06:58:49;;;;;;;;;;;15.40;96.70;;;;;;2073430;28;1572;-62
2021/05/29 07:00:09;;;;;;;;;;;15.40;96.30;;;;;;2080870;28;1534;-62
2021/05/29 07:01:28;;;;;;;;;;;15.50;95.90;;;;;;2079373;28;1525;-61
2021/05/29 07:02:47;;;;;;;;;;;15.50;95.70;;;;;;2075982;28;1336;-61
2021/05/29 07:04:06;;;;;;;;;;;15.50;95.50;;;;;;2078456;28;946;-61
2021/05/29 07:05:25;;;;;;;;;;;15.60;95.40;;;;;;2077937;28;1065;-60
2021/05/29 07:06:45;;;;;;;;;;;15.60;95.40;;;;;;2073054;28;803;-60
2021/05/29 07:08:04;;;;;;;;;;;15.70;95.40;;;;;;2077832;28;1969;-60
2021/05/29 07:09:23;;;;;;;;;;;15.80;95.20;;;;;;2073220;28;747;-60
2021/05/29 07:10:42;;;;;;;;;;;15.80;95.10;;;;;;2069518;28;735;-60
2021/05/29 07:12:02;;;;;;;;;;;15.90;94.90;;;;;;2069495;28;1461;-60
2021/05/29 07:13:21;;;;;;;;;;;15.90;94.70;;;;;;2078319;28;769;-60
2021/05/29 07:14:40;;;;;;;;;;;16.00;94.40;;;;;;2080528;28;745;-60
2021/05/29 07:16:00;;;;;;;;;;;16.10;94.10;;;;;;2072963;28;721;-62
2021/05/29 07:17:19;;;;;;;;;;;16.10;93.80;;;;;;2069810;28;754;-62
2021/05/29 07:18:45;;;;;;;;;;;16.20;93.60;;;;;;2067567;28;766;-62
2021/05/29 07:20:04;;;;;;;;;;;16.30;93.20;;;;;;2079282;28;1656;-62
2021/05/29 07:21:23;;;;;;;;;;;16.30;92.90;;;;;;2070190;28;1655;-62
2021/05/29 07:22:43;;;;;;;;;;;16.40;92.60;;;;;;2072718;28;1450;-62
2021/05/29 07:24:03;;;;;;;;;;;16.40;92.30;;;;;;2081824;28;1206;-62
2021/05/29 07:25:23;;;;;;;;;;;16.40;92.10;;;;;;2082875;28;1405;-62
2021/05/29 07:26:42;;;;;;;;;;;16.50;91.90;;;;;;2089300;28;702;-62
2021/05/29 07:28:01;;;;;;;;;;;;;;;;;;2084600;28;1976;-62
2021/05/29 07:29:21;;;;;;;;;;;16.60;99.90;;;;;;2072831;28;724;-62
2021/05/29 07:30:40;;;;;;;;;;;16.50;91.80;;;;;;2083104;28;715;-62
2021/05/29 07:31:59;;;;;;;;;;;16.40;92.10;;;;;;2081070;28;758;-63
2021/05/29 07:33:18;;;;;;;;;;;16.40;92.60;;;;;;2069682;28;810;-62
2021/05/29 07:34:37;;;;;;;;;;;16.50;93.40;;;;;;2069040;28;1059;-62
2021/05/29 07:35:58;;;;;;;;;;;16.50;93.70;;;;;;2078180;28;1269;-65
2021/05/29 07:37:17;;;;;;;;;;;16.50;94.00;;;;;;2064629;28;742;-62
2021/05/29 07:38:37;;;;;;;;;;;16.50;94.80;;;;;;2061503;28;718;-63
2021/05/29 07:39:56;;;;;;;;;;;16.50;95.20;;;;;;2070017;28;751;-62
2021/05/29 07:41:15;;;;;;;;;;;16.60;95.00;;;;;;2072849;28;1428;-63
2021/05/29 07:42:35;;;;;;;;;;;16.60;94.50;;;;;;2072875;28;868;-62
2021/05/29 07:43:54;;;;;;;;;;;16.70;94.10;;;;;;2072595;28;767;-64
2021/05/29 07:45:13;;;;;;;;;;;16.70;93.70;;;;;;2072929;28;738;-63
2021/05/29 07:46:33;;;;;;;;;;;16.80;93.40;;;;;;2064763;28;716;-63
2021/05/29 07:47:53;;;;;;;;;;;16.80;93.10;;;;;;2063633;28;1977;-63
2021/05/29 07:49:12;;;;;;;;;;;16.90;92.80;;;;;;2069553;28;728;-63
2021/05/29 07:50:31;;;;;;;;;;;16.90;92.40;;;;;;2078667;28;1702;-63
2021/05/29 07:51:50;;;;;;;;;;;17.00;92.20;;;;;;2072948;28;720;-64
2021/05/29 07:53:09;;;;;;;;;;;17.00;91.90;;;;;;2069733;28;738;-63
2021/05/29 07:54:31;;;;;;;;;;;17.00;91.80;;;;;;2071278;28;729;-62
2021/05/29 07:55:50;;;;;;;;;;;17.10;91.60;;;;;;2071852;28;762;-63
2021/05/29 07:57:09;;;;;;;;;;;17.10;91.50;;;;;;2064593;28;723;-63
2021/05/29 07:58:29;;;;;;;;;;;17.10;91.40;;;;;;2064604;28;728;-62
2021/05/29 07:59:48;;;;;;;;;;;17.10;91.30;;;;;;2069801;28;719;-63
2021/05/29 08:01:07;;;;;;;;;;;17.10;91.20;;;;;;2072390;28;1393;-63
2021/05/29 08:02:29;;;;;;;;;;;17.10;91.40;;;;;;2072956;28;735;-63
2021/05/29 08:03:48;;;;;;;;;;;17.10;91.40;;;;;;2076376;28;1419;-63
2021/05/29 08:05:16;;;;;;;;;;;17.10;91.00;;;;;;2076683;28;1029;-63